This is the latest recevied weather packets stored in our database for station/object GW1597. If no packets are shown the sender has not sent any weather packets the latest 10 day(s).
| Time | Temp. | Humidity | Pressure | Rain* | Wind** | Luminosity | Snow |
|---|---|---|---|---|---|---|---|
| 1777209158 | 15° C | 81% | 989.8 hPa | 0 mm | - | - | - |
| 1777207359 | 14.44° C | 84% | 989.5 hPa | 0 mm | - | - | - |
| 1777202317 | - | - | 988.8 hPa | 0 mm | - | - | - |
| 1777201941 | - | - | 988.8 hPa | 0 mm | - | - | - |
| 1777198332 | 12.22° C | 95% | 987.8 hPa | 0 mm | - | - | - |
| 1777197265 | 12.22° C | 95% | 987.8 hPa | 0 mm | - | - | - |
| 1777194014 | 13.33° C | 96% | 987.1 hPa | 0 mm | - | - | - |
| 1777191156 | 13.33° C | 96% | 986.7 hPa | 0 mm | - | - | - |
| 1777185396 | 13.33° C | 96% | 985.7 hPa | 0 mm | - | - | - |
| 1777185022 | 13.89° C | 96% | 986.1 hPa | 0 mm | - | - | - |
| 1777184672 | 13.89° C | 96% | 986.1 hPa | 0 mm | - | - | - |
| 1777183947 | 13.33° C | 96% | 985.7 hPa | 0 mm | - | - | - |
| 1777182526 | 13.89° C | 96% | 986.1 hPa | 0 mm | - | - | - |
| 1777181801 | 13.89° C | 96% | 985.7 hPa | 0 mm | - | - | - |
| 1777180334 | 13.89° C | 96% | 985.7 hPa | 0 mm | - | - | - |
| 1777179652 | 13.89° C | 96% | 985.7 hPa | 0 mm | - | - | - |
| 1777175664 | 13.33° C | 96% | 985.4 hPa | 0.51 mm | - | - | - |
| 1777174570 | 13.33° C | 96% | 985.4 hPa | 0.51 mm | - | - | - |
| 1777170649 | 13.89° C | 95% | 985.4 hPa | 0.51 mm | - | - | - |
| 1777169539 | 13.89° C | 95% | 985.4 hPa | 0.51 mm | - | - | - |
| 1777169191 | 14.44° C | 95% | 985.4 hPa | 0.51 mm | - | - | - |
| 1777167746 | 14.44° C | 94% | 985.4 hPa | 0.51 mm | - | - | - |
| 1777165944 | 15.56° C | 94% | 985.1 hPa | 0.51 mm | - | - | - |
| 1777162340 | 17.78° C | 90% | 983.7 hPa | 0.51 mm | - | - | - |
| 1777161994 | 18.33° C | 89% | 983.7 hPa | 0.51 mm | - | - | - |
* Rain since midnight (hover to see other rain measurements)
** Current wind speed in m/s (hover to see current wind gust speed)